Time;durP1;ratioP1;P1;durP2;ratioP2;P2;SDS_P1;SDS_P2;PMS_P1;PMS_P2;Temp;Humidity;BMP_temperature;BMP_pressure;BME280_temperature;BME280_humidity;BME280_pressure;Samples;Min_cycle;Max_cycle;Signal;HPM_P1;HPM_P2
2022/05/21 00:01:36;;;;;;;19.67;14.15;;;11.10;99.90;;;;;;4987995;28;20027;-84
2022/05/21 00:04:02;;;;;;;20.23;13.32;;;11.20;99.90;;;;;;4973898;28;20085;-84
2022/05/21 00:06:27;;;;;;;23.15;13.82;;;11.20;99.90;;;;;;4974683;28;20030;-84
2022/05/21 00:08:53;;;;;;;20.27;14.35;;;11.20;99.90;;;;;;4992227;28;20034;-84
2022/05/21 00:11:18;;;;;;;21.50;13.20;;;11.30;99.90;;;;;;4975609;28;20089;-84
2022/05/21 00:13:45;;;;;;;21.02;14.38;;;11.40;99.90;;;;;;4988304;28;20034;-84
2022/05/21 00:16:10;;;;;;;18.80;14.30;;;11.40;99.90;;;;;;4964965;28;20490;-85
2022/05/21 00:18:36;;;;;;;21.75;13.77;;;11.40;99.90;;;;;;4956770;28;20026;-85
2022/05/21 00:21:02;;;;;;;25.58;15.48;;;11.50;99.90;;;;;;4975296;28;20223;-85
2022/05/21 00:23:30;;;;;;;21.48;14.18;;;11.50;99.90;;;;;;4973058;28;20410;-85
2022/05/21 00:26:05;;;;;;;20.83;13.60;;;11.50;99.90;;;;;;4965279;28;20030;-85
2022/05/21 00:28:32;;;;;;;20.75;14.25;;;11.60;99.90;;;;;;4970315;28;20035;-84
2022/05/21 00:30:58;;;;;;;22.00;13.90;;;11.60;99.90;;;;;;4983881;28;20455;-84
2022/05/21 00:33:24;;;;;;;21.85;13.90;;;11.60;99.90;;;;;;4987729;28;20118;-84
2022/05/21 00:35:51;;;;;;;19.48;13.60;;;11.60;99.90;;;;;;4956597;28;20039;-84
2022/05/21 00:38:17;;;;;;;16.27;13.00;;;11.60;99.90;;;;;;4964735;28;20386;-84
2022/05/21 00:40:44;;;;;;;18.08;13.05;;;11.60;99.90;;;;;;4975373;28;20116;-84
2022/05/21 00:43:37;;;;;;;22.00;13.23;;;11.60;99.90;;;;;;4985166;28;20055;-84
2022/05/21 00:46:05;;;;;;;20.67;13.02;;;11.70;99.90;;;;;;4982994;28;20057;-84
2022/05/21 00:48:30;;;;;;;20.30;12.88;;;11.70;99.90;;;;;;4974754;28;20034;-84
2022/05/21 00:50:57;;;;;;;19.33;12.75;;;11.80;99.90;;;;;;4970000;28;20026;-84
2022/05/21 00:53:22;;;;;;;16.80;12.88;;;11.80;99.90;;;;;;4958380;28;20469;-85
2022/05/21 00:55:50;;;;;;;18.98;11.77;;;11.80;99.90;;;;;;4970898;28;20102;-83
2022/05/21 01:01:04;;;;;;;17.35;11.05;;;11.90;99.90;;;;;;4974001;28;20097;-84
2022/05/21 01:03:30;;;;;;;15.57;11.15;;;11.90;99.90;;;;;;4975761;28;20026;-83
2022/05/21 01:05:59;;;;;;;16.27;11.68;;;11.90;99.90;;;;;;4972640;28;20049;-84
2022/05/21 01:08:24;;;;;;;15.82;10.55;;;12.00;99.90;;;;;;4971068;28;20026;-84
2022/05/21 01:10:54;;;;;;;15.45;10.75;;;12.00;99.90;;;;;;4992701;28;20038;-84
2022/05/21 01:13:23;;;;;;;20.55;11.15;;;12.00;99.90;;;;;;4970773;28;20126;-84
2022/05/21 01:15:53;;;;;;;15.50;10.25;;;12.00;99.90;;;;;;4972643;28;20368;-83
2022/05/21 01:18:19;;;;;;;18.30;11.50;;;12.00;99.90;;;;;;4975432;28;20053;-83
2022/05/21 01:20:48;;;;;;;16.70;12.05;;;12.10;99.90;;;;;;4975772;28;20072;-84
2022/05/21 01:23:16;;;;;;;16.80;11.93;;;12.10;99.90;;;;;;4959843;28;20031;-84
2022/05/21 01:25:43;;;;;;;18.13;11.88;;;12.10;99.90;;;;;;4974680;28;20066;-84
2022/05/21 01:28:14;;;;;;;21.67;12.10;;;12.10;99.90;;;;;;4972653;28;20117;-84
2022/05/21 01:30:45;;;;;;;16.40;11.88;;;12.10;99.90;;;;;;4992072;28;20109;-84
2022/05/21 01:33:16;;;;;;;21.23;12.38;;;12.10;99.90;;;;;;4971356;28;20031;-84
2022/05/21 01:35:43;;;;;;;18.15;11.23;;;12.20;99.90;;;;;;4984589;28;20084;-84
2022/05/21 01:38:09;;;;;;;17.83;11.98;;;12.20;99.90;;;;;;4987139;28;20033;-85
2022/05/21 01:40:36;;;;;;;22.70;11.68;;;12.20;99.90;;;;;;4986686;28;20030;-84
2022/05/21 01:45:48;;;;;;;21.90;13.10;;;12.30;99.90;;;;;;4987191;28;20061;-85
2022/05/21 01:48:18;;;;;;;23.55;11.90;;;12.30;99.90;;;;;;4989855;28;20037;-84
2022/05/21 01:50:45;;;;;;;21.83;11.93;;;12.30;99.90;;;;;;4991995;28;20058;-85
2022/05/21 01:53:11;;;;;;;21.95;13.07;;;12.30;99.90;;;;;;4969548;28;20463;-84
2022/05/21 01:55:40;;;;;;;20.42;12.88;;;12.30;99.90;;;;;;4970397;28;20022;-84
2022/05/21 01:58:06;;;;;;;18.65;12.10;;;12.40;99.90;;;;;;4982407;28;20037;-84
2022/05/21 02:00:32;;;;;;;26.75;12.88;;;12.40;99.90;;;;;;4978459;28;20023;-84
2022/05/21 02:02:57;;;;;;;22.27;11.63;;;12.40;99.90;;;;;;4972182;28;20031;-84
2022/05/21 02:05:23;;;;;;;19.50;11.93;;;12.40;99.90;;;;;;4959376;28;20035;-84
2022/05/21 02:07:48;;;;;;;20.33;11.65;;;12.40;99.90;;;;;;4983198;28;20041;-84
2022/05/21 02:10:14;;;;;;;16.88;11.18;;;12.40;99.90;;;;;;4995314;28;20022;-83
2022/05/21 02:12:40;;;;;;;17.00;11.15;;;12.50;99.90;;;;;;4989316;28;20062;-84
2022/05/21 02:15:06;;;;;;;20.05;10.75;;;12.40;99.90;;;;;;4972488;28;20085;-84
2022/05/21 02:17:32;;;;;;;18.42;11.90;;;12.50;99.90;;;;;;4959654;28;20033;-84
2022/05/21 02:19:57;;;;;;;16.83;11.18;;;12.50;99.90;;;;;;4985836;28;20823;-83
2022/05/21 02:22:23;;;;;;;21.27;12.45;;;12.40;99.90;;;;;;4989314;28;20057;-84
2022/05/21 02:24:49;;;;;;;19.10;10.98;;;12.50;99.90;;;;;;4976507;28;20043;-84
2022/05/21 02:27:15;;;;;;;22.80;12.60;;;12.50;99.90;;;;;;4991341;28;20038;-84
2022/05/21 02:29:43;;;;;;;19.95;11.75;;;12.50;99.90;;;;;;4980258;28;20034;-84
2022/05/21 02:32:12;;;;;;;20.98;12.43;;;12.50;99.90;;;;;;4976620;28;20395;-84
2022/05/21 02:34:38;;;;;;;18.08;11.70;;;12.50;99.90;;;;;;4974712;28;20058;-84
2022/05/21 02:39:48;;;;;;;23.95;12.95;;;12.50;99.90;;;;;;4987851;28;20068;-83
2022/05/21 02:44:58;;;;;;;25.27;12.63;;;12.50;99.90;;;;;;4994640;28;20041;-84
2022/05/21 02:47:25;;;;;;;16.73;10.68;;;12.60;99.90;;;;;;4987898;28;20035;-84
2022/05/21 02:49:50;;;;;;;18.77;11.63;;;12.50;99.90;;;;;;4965763;28;20165;-84
2022/05/21 02:52:16;;;;;;;18.33;11.85;;;12.60;99.90;;;;;;4993023;28;20113;-84
2022/05/21 02:54:42;;;;;;;19.88;11.43;;;12.60;99.90;;;;;;4983197;28;20035;-84
2022/05/21 02:57:09;;;;;;;21.05;10.90;;;12.60;99.90;;;;;;4968816;28;20040;-84
2022/05/21 02:59:36;;;;;;;18.40;11.52;;;12.60;99.90;;;;;;4976709;28;20170;-84
2022/05/21 03:02:01;;;;;;;19.70;11.98;;;12.60;99.90;;;;;;4977623;28;20085;-84
2022/05/21 03:04:27;;;;;;;20.38;11.32;;;12.50;99.90;;;;;;4976724;28;20471;-84
2022/05/21 03:06:53;;;;;;;22.20;11.70;;;12.50;99.90;;;;;;4992714;28;20077;-84
2022/05/21 03:12:03;;;;;;;20.23;12.18;;;12.50;99.90;;;;;;4982258;28;20061;-84
2022/05/21 03:14:28;;;;;;;23.08;11.38;;;12.50;99.90;;;;;;4994381;28;20467;-84
2022/05/21 03:16:59;;;;;;;20.80;10.95;;;12.40;99.90;;;;;;4975039;28;20066;-84
2022/05/21 03:19:28;;;;;;;19.17;11.38;;;12.40;99.90;;;;;;4994427;28;20068;-85
2022/05/21 03:21:54;;;;;;;21.50;11.60;;;12.40;99.90;;;;;;4963955;28;20030;-84
2022/05/21 03:24:19;;;;;;;21.42;12.43;;;12.40;99.90;;;;;;4957564;28;20511;-84
2022/05/21 03:26:46;;;;;;;24.45;12.30;;;12.40;99.90;;;;;;4970428;28;20030;-84
2022/05/21 03:29:12;;;;;;;20.95;12.73;;;12.40;99.90;;;;;;4974962;28;20027;-84
2022/05/21 03:31:38;;;;;;;19.42;11.93;;;12.40;99.90;;;;;;4984145;28;20042;-83
2022/05/21 03:34:03;;;;;;;18.50;11.57;;;12.50;99.90;;;;;;4957495;28;20027;-84
2022/05/21 03:36:29;;;;;;;16.13;10.93;;;12.40;99.90;;;;;;4980027;28;20029;-84
2022/05/21 03:38:55;;;;;;;24.38;12.88;;;12.50;99.90;;;;;;4974683;28;20479;-84
2022/05/21 03:41:21;;;;;;;20.45;12.32;;;12.50;99.90;;;;;;4957193;28;20372;-84
2022/05/21 03:43:47;;;;;;;18.25;12.13;;;12.50;99.90;;;;;;4966937;28;20037;-84
2022/05/21 03:46:13;;;;;;;26.10;13.68;;;12.50;99.90;;;;;;4972352;28;20425;-84
2022/05/21 03:48:38;;;;;;;19.52;12.40;;;12.50;99.90;;;;;;4990029;28;20049;-84
2022/05/21 03:51:04;;;;;;;25.90;13.52;;;12.50;99.90;;;;;;4985281;28;20030;-84
2022/05/21 03:53:29;;;;;;;22.88;11.90;;;12.60;99.90;;;;;;4970219;28;20054;-84
2022/05/21 03:55:56;;;;;;;20.50;11.57;;;12.60;99.90;;;;;;4974132;28;20026;-85
2022/05/21 03:58:22;;;;;;;18.35;11.10;;;12.60;99.90;;;;;;4971412;28;20026;-84
2022/05/21 04:00:48;;;;;;;22.27;12.07;;;12.60;99.90;;;;;;4976297;28;20029;-84
2022/05/21 04:03:14;;;;;;;18.75;11.43;;;12.60;99.90;;;;;;4974094;28;20390;-84
2022/05/21 04:05:39;;;;;;;22.42;11.45;;;12.60;99.90;;;;;;4963123;28;20023;-84
2022/05/21 04:08:06;;;;;;;22.42;11.05;;;12.60;99.90;;;;;;4970247;28;20776;-83
2022/05/21 04:10:31;;;;;;;23.08;11.20;;;12.60;99.90;;;;;;4974490;28;20077;-84
2022/05/21 04:12:57;;;;;;;23.92;11.20;;;12.50;99.90;;;;;;4973247;28;20030;-83
2022/05/21 04:15:22;;;;;;;22.58;11.93;;;12.50;99.90;;;;;;4975241;28;20073;-83
2022/05/21 04:17:48;;;;;;;20.75;12.75;;;12.60;99.90;;;;;;4973183;28;20410;-83
2022/05/21 04:20:15;;;;;;;21.42;11.75;;;12.60;99.90;;;;;;4974372;28;20022;-83
2022/05/21 04:22:42;;;;;;;22.90;11.15;;;12.60;99.90;;;;;;4972493;28;20039;-83
2022/05/21 04:25:09;;;;;;;21.35;11.38;;;12.60;99.90;;;;;;4973325;28;20165;-83
2022/05/21 04:27:39;;;;;;;20.15;11.43;;;12.70;99.90;;;;;;4981399;28;20407;-84
2022/05/21 04:30:06;;;;;;;22.80;11.02;;;12.80;99.90;;;;;;4974332;28;20076;-84
2022/05/21 04:32:32;;;;;;;19.42;10.63;;;12.70;99.90;;;;;;4960884;28;20022;-84
2022/05/21 04:34:57;;;;;;;27.27;12.70;;;12.80;99.90;;;;;;4982609;28;20403;-84
2022/05/21 04:37:23;;;;;;;21.67;10.63;;;12.80;99.90;;;;;;4965744;28;20595;-84
2022/05/21 04:39:48;;;;;;;23.42;11.48;;;12.80;99.90;;;;;;4969779;28;20526;-83
2022/05/21 04:42:14;;;;;;;31.38;12.98;;;12.90;99.90;;;;;;4971207;28;20065;-83
2022/05/21 04:44:39;;;;;;;27.10;12.23;;;12.90;99.90;;;;;;4957670;28;20476;-84
2022/05/21 04:47:06;;;;;;;23.02;10.32;;;13.00;99.90;;;;;;4986266;28;20046;-84
2022/05/21 04:49:31;;;;;;;23.95;10.25;;;13.00;99.90;;;;;;4969605;28;20110;-85
2022/05/21 04:51:57;;;;;;;21.52;9.77;;;13.00;99.90;;;;;;4971981;28;20140;-84
2022/05/21 04:54:23;;;;;;;22.95;10.30;;;13.00;99.90;;;;;;4972096;28;20534;-85
2022/05/21 04:56:49;;;;;;;20.30;10.60;;;13.10;99.90;;;;;;4965573;28;20118;-85
2022/05/21 04:59:14;;;;;;;24.75;9.73;;;13.10;99.90;;;;;;4984743;28;20510;-84
2022/05/21 05:01:41;;;;;;;19.35;10.93;;;13.10;99.90;;;;;;4970015;28;20037;-84
2022/05/21 05:04:10;;;;;;;25.38;10.38;;;13.10;99.90;;;;;;4974720;28;20034;-84
2022/05/21 05:06:37;;;;;;;23.42;9.75;;;13.10;99.90;;;;;;4963863;28;20039;-84
2022/05/21 05:09:03;;;;;;;25.40;9.63;;;13.10;99.90;;;;;;4974536;28;20034;-84
2022/05/21 05:11:28;;;;;;;20.83;8.50;;;13.10;99.90;;;;;;4972274;28;20019;-84
2022/05/21 05:13:55;;;;;;;15.50;7.97;;;13.10;99.90;;;;;;4990010;28;20037;-84
2022/05/21 05:16:20;;;;;;;22.38;7.63;;;13.30;99.90;;;;;;4982270;28;20051;-85
2022/05/21 05:18:46;;;;;;;21.08;8.23;;;13.40;99.90;;;;;;4986368;28;20526;-85
2022/05/21 05:21:11;;;;;;;12.98;7.00;;;13.60;99.90;;;;;;4974623;28;20022;-85
2022/05/21 05:23:36;;;;;;;21.27;7.05;;;13.80;99.90;;;;;;4974597;28;20042;-84
2022/05/21 05:26:02;;;;;;;19.17;6.57;;;14.00;99.90;;;;;;4978735;28;20062;-84
2022/05/21 05:28:28;;;;;;;19.58;5.85;;;14.20;99.90;;;;;;4969716;28;20114;-84
2022/05/21 05:30:54;;;;;;;15.38;4.57;;;14.30;99.90;;;;;;4975705;28;20031;-84
2022/05/21 05:33:21;;;;;;;13.45;5.30;;;14.50;99.90;;;;;;4977341;28;20439;-85
2022/05/21 05:35:52;;;;;;;14.70;5.18;;;14.60;99.90;;;;;;4976449;28;20023;-85
2022/05/21 05:38:19;;;;;;;18.48;5.32;;;14.70;99.90;;;;;;4978768;28;20100;-85
2022/05/21 05:40:47;;;;;;;12.70;4.93;;;14.80;99.90;;;;;;4972842;28;20505;-85
2022/05/21 05:43:15;;;;;;;16.27;4.32;;;14.70;99.90;;;;;;4977861;28;20076;-84
2022/05/21 05:45:40;;;;;;;16.85;4.47;;;14.70;99.90;;;;;;4978045;28;20030;-84
2022/05/21 05:48:06;;;;;;;14.45;4.60;;;14.60;99.90;;;;;;4964085;28;20057;-84
2022/05/21 05:50:32;;;;;;;19.20;5.28;;;14.60;99.90;;;;;;4976359;28;20455;-84
2022/05/21 05:53:03;;;;;;;12.63;4.25;;;14.60;99.90;;;;;;4971569;28;20390;-84
2022/05/21 05:55:30;;;;;;;14.80;4.78;;;14.60;99.90;;;;;;4974339;28;20053;-84
2022/05/21 05:57:56;;;;;;;14.60;4.63;;;14.60;99.90;;;;;;4974191;28;20041;-84
2022/05/21 06:00:22;;;;;;;17.15;4.53;;;14.60;99.90;;;;;;4973292;28;20027;-84
2022/05/21 06:03:01;;;;;;;17.13;4.25;;;14.60;99.90;;;;;;4962745;28;20085;-84
2022/05/21 06:05:30;;;;;;;14.77;3.55;;;14.60;99.90;;;;;;4969300;28;20027;-84
2022/05/21 06:08:01;;;;;;;18.65;4.40;;;14.60;99.90;;;;;;4994313;28;20038;-84
2022/05/21 06:10:34;;;;;;;18.57;3.60;;;14.70;99.90;;;;;;4975328;28;20546;-83
2022/05/21 06:13:00;;;;;;;20.20;5.38;;;14.70;99.90;;;;;;4970274;28;20723;-89
2022/05/21 06:15:26;;;;;;;25.08;4.22;;;14.80;99.90;;;;;;4974230;28;20109;-86
2022/05/21 06:17:52;;;;;;;16.80;4.95;;;14.80;99.90;;;;;;4968751;28;20102;-88
2022/05/21 06:20:21;;;;;;;15.75;3.50;;;14.80;99.90;;;;;;4966920;28;20541;-84
2022/05/21 06:22:47;;;;;;;17.67;4.05;;;14.80;99.90;;;;;;4976778;28;20034;-84
2022/05/21 06:25:18;;;;;;;13.27;3.85;;;14.80;99.90;;;;;;4976161;28;20101;-85
2022/05/21 06:27:45;;;;;;;12.52;3.53;;;14.90;99.90;;;;;;4971077;28;20537;-85
2022/05/21 06:30:12;;;;;;;18.23;3.60;;;14.90;99.90;;;;;;4975501;28;20038;-85
2022/05/21 06:32:37;;;;;;;18.80;4.50;;;14.90;99.90;;;;;;4976176;28;20034;-86
2022/05/21 06:35:04;;;;;;;22.15;4.63;;;15.10;99.90;;;;;;4991021;28;20042;-84
2022/05/21 06:37:30;;;;;;;18.90;4.82;;;15.10;99.90;;;;;;4972720;28;20446;-84
2022/05/21 06:39:55;;;;;;;12.73;2.95;;;15.10;99.90;;;;;;4968679;28;20022;-84
2022/05/21 06:42:21;;;;;;;18.77;3.92;;;15.20;99.90;;;;;;4970557;28;20076;-83
2022/05/21 06:44:46;;;;;;;15.77;3.60;;;15.30;99.90;;;;;;4968861;28;20038;-85
2022/05/21 06:47:12;;;;;;;22.45;4.50;;;15.40;99.90;;;;;;4970826;28;20031;-84
2022/05/21 06:49:37;;;;;;;18.60;4.03;;;15.50;99.90;;;;;;4970641;28;20036;-84
2022/05/21 06:52:04;;;;;;;20.13;3.80;;;15.60;99.90;;;;;;4972713;28;20034;-84
2022/05/21 06:54:29;;;;;;;15.18;3.45;;;15.70;99.90;;;;;;4983160;28;20114;-83
2022/05/21 06:56:55;;;;;;;16.80;4.75;;;15.90;99.90;;;;;;4971427;28;20452;-84
2022/05/21 06:59:21;;;;;;;18.10;4.47;;;15.90;99.90;;;;;;4985650;28;20029;-83
2022/05/21 07:01:47;;;;;;;19.73;4.55;;;16.00;99.90;;;;;;4970826;28;20125;-84
2022/05/21 07:04:14;;;;;;;17.48;3.92;;;16.00;99.90;;;;;;4969117;28;20023;-84
2022/05/21 07:09:25;;;;;;;12.52;3.38;;;15.90;99.90;;;;;;4986931;28;20028;-84
2022/05/21 07:11:51;;;;;;;19.25;4.35;;;16.00;99.90;;;;;;4964162;28;20689;-84
2022/05/21 07:14:17;;;;;;;14.23;3.20;;;16.00;99.90;;;;;;4973502;28;20027;-85
2022/05/21 07:16:43;;;;;;;14.93;3.85;;;15.90;99.90;;;;;;4972188;28;20031;-83
2022/05/21 07:19:09;;;;;;;9.80;2.30;;;15.80;99.90;;;;;;4977696;28;20022;-84
2022/05/21 07:21:35;;;;;;;9.55;2.33;;;15.80;99.90;;;;;;4985712;28;20463;-84
2022/05/21 07:24:00;;;;;;;11.60;2.90;;;15.80;99.90;;;;;;4969135;28;20053;-84
2022/05/21 07:26:26;;;;;;;11.05;2.30;;;15.90;99.90;;;;;;4970928;28;20479;-83
2022/05/21 07:28:52;;;;;;;10.68;2.63;;;15.90;99.90;;;;;;4970323;28;20037;-84
2022/05/21 07:31:18;;;;;;;12.90;2.63;;;15.90;99.90;;;;;;4964642;28;20038;-84
2022/05/21 07:33:44;;;;;;;12.40;2.45;;;16.00;99.90;;;;;;4980601;28;20116;-85
2022/05/21 07:36:09;;;;;;;18.55;3.92;;;16.10;99.90;;;;;;4966626;28;20030;-89
2022/05/21 07:38:35;;;;;;;11.05;2.78;;;16.10;99.90;;;;;;4966887;28;20385;-88
2022/05/21 07:41:01;;;;;;;17.55;3.38;;;16.00;99.90;;;;;;4966962;28;20023;-91
2022/05/21 07:43:30;;;;;;;18.17;3.08;;;16.10;99.90;;;;;;4971829;28;20038;-90
2022/05/21 07:46:00;;;;;;;15.77;2.60;;;16.00;99.90;;;;;;4962236;28;20070;-91
2022/05/21 07:48:27;;;;;;;11.60;2.58;;;16.00;99.90;;;;;;4982282;28;20042;-88
2022/05/21 07:50:56;;;;;;;12.70;2.30;;;16.00;99.90;;;;;;4982527;28;20050;-91
2022/05/21 07:53:27;;;;;;;14.95;3.25;;;16.10;99.90;;;;;;4967993;28;21799;-91
2022/05/21 07:55:54;;;;;;;13.77;2.60;;;16.20;99.90;;;;;;4963984;28;20615;-90
2022/05/21 07:58:22;;;;;;;9.25;2.17;;;16.10;99.90;;;;;;4980127;28;20058;-89
2022/05/21 08:00:48;;;;;;;13.35;2.53;;;16.10;99.90;;;;;;4967735;28;20033;-88
2022/05/21 08:03:14;;;;;;;11.45;2.30;;;16.30;99.90;;;;;;4971764;28;20125;-89
2022/05/21 08:05:41;;;;;;;12.82;2.35;;;16.60;99.90;;;;;;4975534;28;20109;-90
2022/05/21 08:08:08;;;;;;;11.27;2.38;;;16.80;99.90;;;;;;4969487;28;20423;-90
2022/05/21 08:10:34;;;;;;;8.15;1.88;;;16.90;99.90;;;;;;4972686;28;20415;-90
2022/05/21 08:13:01;;;;;;;15.93;2.40;;;17.00;99.90;;;;;;4972337;28;20022;-89
2022/05/21 08:15:26;;;;;;;12.52;1.90;;;17.10;99.90;;;;;;4969248;28;20026;-90
2022/05/21 08:17:52;;;;;;;11.35;2.83;;;17.10;99.90;;;;;;4973738;28;20034;-90
2022/05/21 08:20:18;;;;;;;7.07;1.25;;;17.30;99.90;;;;;;4976721;28;20541;-88
2022/05/21 08:28:14;;;;;;;13.40;2.08;;;17.80;99.90;;;;;;4987986;28;20102;-89
2022/05/21 08:30:42;;;;;;;13.38;1.60;;;17.70;99.90;;;;;;4971914;28;20121;-89
2022/05/21 08:33:09;;;;;;;11.32;2.45;;;17.70;99.90;;;;;;4969702;28;20026;-89
2022/05/21 08:35:38;;;;;;;11.75;1.60;;;17.70;99.90;;;;;;4974273;28;20113;-89
2022/05/21 08:38:04;;;;;;;6.93;1.77;;;17.80;99.90;;;;;;4971521;28;20022;-90
2022/05/21 08:40:43;;;;;;;11.82;1.70;;;17.80;99.90;;;;;;4971965;28;20037;-88
2022/05/21 08:43:20;;;;;;;12.23;1.30;;;17.80;99.90;;;;;;4975735;28;20026;-89
2022/05/21 08:46:09;;;;;;;5.65;1.20;;;17.80;99.90;;;;;;4972697;28;20108;-89
2022/05/21 08:48:37;;;;;;;11.65;1.60;;;17.90;99.90;;;;;;4971619;28;20498;-90
2022/05/21 08:51:10;;;;;;;11.32;1.85;;;17.90;99.90;;;;;;4969468;28;20085;-89
2022/05/21 08:53:45;;;;;;;10.55;1.60;;;17.90;99.90;;;;;;4972906;28;20042;-89
2022/05/21 08:56:11;;;;;;;9.73;1.80;;;18.10;99.90;;;;;;4962513;28;20411;-88
2022/05/21 08:58:48;;;;;;;8.68;1.90;;;18.00;99.90;;;;;;4964034;28;20122;-89
2022/05/21 09:01:23;;;;;;;8.10;1.73;;;17.80;99.90;;;;;;4966135;28;20026;-88
2022/05/21 09:03:51;;;;;;;9.77;2.38;;;17.80;99.90;;;;;;4969818;28;20018;-89
2022/05/21 09:06:28;;;;;;;11.63;2.33;;;18.00;99.90;;;;;;4982912;28;20455;-89
2022/05/21 09:09:08;;;;;;;8.52;1.90;;;18.20;99.90;;;;;;4973029;28;20121;-89
2022/05/21 09:11:53;;;;;;;9.10;2.10;;;18.50;99.90;;;;;;4972907;28;20019;-89
2022/05/21 09:14:41;;;;;;;8.13;1.50;;;18.70;99.90;;;;;;4960352;28;20085;-89
2022/05/21 09:17:16;;;;;;;6.28;1.00;;;19.00;99.90;;;;;;4971111;28;20039;-90
2022/05/21 09:19:45;;;;;;;10.68;2.58;;;19.00;99.90;;;;;;4963776;28;20035;-89
2022/05/21 09:22:17;;;;;;;13.95;3.05;;;18.80;99.90;;;;;;4974875;28;20045;-89
2022/05/21 09:24:54;;;;;;;8.82;1.52;;;18.80;99.90;;;;;;4966016;28;20050;-90
2022/05/21 09:27:42;;;;;;;7.35;1.25;;;18.80;99.90;;;;;;4966765;28;20490;-89
2022/05/21 09:30:21;;;;;;;9.15;1.30;;;19.00;99.90;;;;;;4963861;28;20101;-91
2022/05/21 09:32:52;;;;;;;7.35;1.05;;;19.00;99.90;;;;;;4956319;28;20078;-90
2022/05/21 09:35:21;;;;;;;7.97;1.10;;;18.80;99.90;;;;;;4967751;28;20054;-88
2022/05/21 09:37:47;;;;;;;5.90;1.30;;;18.80;99.90;;;;;;4973558;28;20026;-91
2022/05/21 09:40:38;;;;;;;7.40;1.52;;;18.80;99.90;;;;;;4967689;28;20138;-90
2022/05/21 09:46:18;;;;;;;7.32;0.85;;;19.20;99.90;;;;;;4981128;28;20050;-89
2022/05/21 09:48:46;;;;;;;6.97;1.20;;;19.20;99.90;;;;;;4956517;28;20037;-88
2022/05/21 09:51:41;;;;;;;7.32;0.82;;;19.10;99.40;;;;;;4956474;28;20105;-89
2022/05/21 09:54:22;;;;;;;6.80;1.10;;;19.00;99.80;;;;;;4954209;28;20050;-89
2022/05/21 09:56:52;;;;;;;7.53;1.03;;;19.00;99.90;;;;;;4967857;28;20038;-89
2022/05/21 09:59:19;;;;;;;10.18;1.00;;;19.00;99.90;;;;;;4971675;28;20325;-89
2022/05/21 10:01:53;;;;;;;11.15;1.77;;;18.90;99.90;;;;;;4964655;28;20082;-89
2022/05/21 10:04:21;;;;;;;5.82;0.77;;;18.70;99.90;;;;;;4975325;28;20030;-89
2022/05/21 10:06:53;;;;;;;7.72;0.77;;;18.60;99.90;;;;;;4973537;28;20038;-90
2022/05/21 10:12:31;;;;;;;6.97;0.95;;;18.40;99.90;;;;;;4992219;28;20053;-90
2022/05/21 10:15:09;;;;;;;6.63;0.75;;;18.30;99.90;;;;;;4975557;28;20368;-88
2022/05/21 10:17:42;;;;;;;7.22;0.70;;;18.50;99.90;;;;;;4977295;28;20023;-88
2022/05/21 10:20:28;;;;;;;8.95;1.80;;;18.60;99.80;;;;;;4963709;28;20044;-89
2022/05/21 10:23:02;;;;;;;4.75;0.65;;;18.80;99.90;;;;;;4959449;28;20034;-88
2022/05/21 10:25:41;;;;;;;10.60;1.20;;;18.90;99.70;;;;;;4965596;28;20074;-89
2022/05/21 10:28:24;;;;;;;8.57;1.13;;;19.00;99.70;;;;;;4965899;28;20142;-89
2022/05/21 10:31:29;;;;;;;7.53;1.17;;;19.10;99.50;;;;;;4973801;28;20031;-89
2022/05/21 10:34:23;;;;;;;6.07;0.70;;;19.20;99.60;;;;;;4960255;28;20031;-89
2022/05/21 10:37:24;;;;;;;5.80;0.60;;;19.20;99.20;;;;;;4970648;28;20075;-89
2022/05/21 10:40:00;;;;;;;8.18;1.15;;;19.10;98.90;;;;;;4974546;28;20125;-89
2022/05/21 10:42:37;;;;;;;5.63;1.33;;;18.80;98.80;;;;;;4977610;28;20033;-89
2022/05/21 10:45:12;;;;;;;6.22;0.80;;;18.70;98.90;;;;;;4965156;28;20030;-89
2022/05/21 10:47:53;;;;;;;9.38;0.70;;;18.60;99.30;;;;;;4972483;28;20046;-89
2022/05/21 10:50:30;;;;;;;4.95;0.80;;;18.70;99.50;;;;;;4967170;28;20022;-89
2022/05/21 10:53:30;;;;;;;7.65;0.52;;;18.90;99.40;;;;;;4976179;28;20117;-88
2022/05/21 10:56:15;;;;;;;8.13;0.95;;;19.10;99.20;;;;;;4978002;28;20121;-88
2022/05/21 10:59:18;;;;;;;8.23;0.50;;;19.30;98.30;;;;;;4975446;28;20026;-89
2022/05/21 11:02:22;;;;;;;9.77;1.17;;;19.50;97.70;;;;;;4969402;28;20045;-88
2022/05/21 11:05:02;;;;;;;8.23;0.85;;;19.90;97.60;;;;;;4975241;28;20026;-89
2022/05/21 11:07:42;;;;;;;6.80;0.60;;;20.20;97.20;;;;;;4977217;28;20043;-88
2022/05/21 11:10:33;;;;;;;11.25;0.75;;;20.30;96.90;;;;;;4970541;28;20038;-88
2022/05/21 11:13:06;;;;;;;5.80;0.80;;;20.40;96.40;;;;;;4968054;28;20118;-89
2022/05/21 11:15:47;;;;;;;5.47;0.50;;;20.50;96.10;;;;;;4972155;28;20022;-89
2022/05/21 11:18:18;;;;;;;7.25;0.77;;;20.70;95.90;;;;;;4962789;28;20030;-89
2022/05/21 11:21:02;;;;;;;9.13;1.15;;;20.70;95.00;;;;;;4977195;28;20084;-88
2022/05/21 11:23:43;;;;;;;6.47;0.70;;;20.60;94.20;;;;;;4974644;28;20029;-88
2022/05/21 11:26:30;;;;;;;8.95;0.70;;;20.30;94.40;;;;;;4958773;28;20030;-89
2022/05/21 11:29:16;;;;;;;7.90;1.17;;;20.10;95.00;;;;;;4968237;28;21883;-88
2022/05/21 11:37:35;;;;;;;6.43;0.73;;;20.70;95.40;;;;;;4992580;28;20081;-84
2022/05/21 11:40:01;;;;;;;8.82;1.10;;;20.80;94.70;;;;;;4974784;28;20077;-85
2022/05/21 11:42:32;;;;;;;7.25;0.60;;;20.80;94.30;;;;;;4977224;28;20022;-85
2022/05/21 11:45:23;;;;;;;5.57;0.60;;;20.80;94.00;;;;;;4966101;28;20066;-84
2022/05/21 11:48:12;;;;;;;5.28;0.70;;;20.70;92.90;;;;;;4957148;28;20353;-85
2022/05/21 11:50:40;;;;;;;5.20;0.60;;;20.80;92.90;;;;;;4976405;28;20038;-86
2022/05/21 11:53:09;;;;;;;7.88;0.50;;;20.80;92.30;;;;;;4975742;28;20077;-84
2022/05/21 11:55:59;;;;;;;4.88;0.60;;;20.60;91.90;;;;;;4975624;28;20062;-85
2022/05/21 11:58:45;;;;;;;5.85;0.45;;;20.50;91.90;;;;;;4967997;28;20022;-84
2022/05/21 12:01:38;;;;;;;5.70;0.60;;;20.40;91.80;;;;;;4969726;28;20035;-84
2022/05/21 12:04:06;;;;;;;5.25;0.50;;;20.40;92.80;;;;;;4976097;28;20036;-85
2022/05/21 12:06:41;;;;;;;4.30;0.40;;;20.60;92.30;;;;;;4959304;28;20035;-84
2022/05/21 12:09:24;;;;;;;5.70;0.52;;;20.70;92.00;;;;;;4972745;28;20034;-85
2022/05/21 12:11:50;;;;;;;6.90;1.13;;;20.80;92.10;;;;;;4965954;28;20023;-84
2022/05/21 12:14:25;;;;;;;5.03;0.85;;;20.90;92.30;;;;;;4975574;28;20479;-85
2022/05/21 12:16:57;;;;;;;4.30;0.43;;;21.10;92.40;;;;;;4968793;28;20019;-85
2022/05/21 12:20:04;;;;;;;9.55;0.70;;;21.20;91.70;;;;;;4963881;28;20031;-84
2022/05/21 12:22:35;;;;;;;4.88;0.40;;;21.10;91.30;;;;;;4972912;28;20034;-85
2022/05/21 12:25:00;;;;;;;2.97;0.40;;;21.20;92.20;;;;;;4964439;28;20050;-85
2022/05/21 12:27:27;;;;;;;3.50;0.30;;;21.40;91.00;;;;;;4968337;28;20053;-85
2022/05/21 12:30:13;;;;;;;7.03;0.47;;;21.30;90.80;;;;;;4974527;28;20022;-85
2022/05/21 12:32:39;;;;;;;5.70;0.40;;;21.30;89.80;;;;;;4975332;28;20034;-85
2022/05/21 12:35:25;;;;;;;4.72;0.47;;;21.00;89.80;;;;;;4972167;28;20026;-85
2022/05/21 12:38:11;;;;;;;7.32;0.50;;;20.90;90.20;;;;;;4961429;28;20022;-85
2022/05/21 12:40:52;;;;;;;6.78;0.65;;;20.90;89.80;;;;;;4975798;28;20033;-86
2022/05/21 12:43:18;;;;;;;6.22;0.50;;;20.80;88.20;;;;;;4973343;28;20382;-86
2022/05/21 12:45:49;;;;;;;5.30;0.40;;;20.70;89.30;;;;;;4993434;28;20038;-86
2022/05/21 12:48:17;;;;;;;4.78;0.50;;;20.80;89.50;;;;;;4973877;28;20049;-86
2022/05/21 12:50:48;;;;;;;2.97;0.40;;;20.70;86.90;;;;;;4965930;28;20030;-85
2022/05/21 12:53:18;;;;;;;5.70;0.70;;;20.60;87.60;;;;;;4962692;28;20029;-85
2022/05/21 12:55:44;;;;;;;10.70;0.90;;;20.50;88.20;;;;;;4969873;28;20034;-86
2022/05/21 12:58:09;;;;;;;11.45;1.38;;;20.60;88.80;;;;;;4972990;28;20034;-86
2022/05/21 13:00:37;;;;;;;6.35;0.68;;;20.70;88.90;;;;;;4976399;28;20076;-86
2022/05/21 13:03:08;;;;;;;8.98;0.50;;;20.80;88.70;;;;;;4975629;28;20529;-86
2022/05/21 13:05:38;;;;;;;6.47;0.57;;;21.00;89.60;;;;;;4975753;28;20030;-86
2022/05/21 13:08:05;;;;;;;5.30;0.47;;;21.30;88.30;;;;;;4975953;28;20112;-85
2022/05/21 13:10:34;;;;;;;5.28;0.50;;;21.40;88.30;;;;;;4963501;28;20125;-85
2022/05/21 13:13:08;;;;;;;5.70;0.85;;;21.60;88.30;;;;;;4975652;28;20061;-85
2022/05/21 13:15:42;;;;;;;6.75;0.60;;;21.70;86.70;;;;;;4969881;28;20035;-85
2022/05/21 13:18:42;;;;;;;4.57;0.88;;;21.70;87.90;;;;;;4973297;28;20046;-85
2022/05/21 13:21:29;;;;;;;7.50;0.60;;;21.80;86.00;;;;;;4969599;28;20058;-85
2022/05/21 13:24:18;;;;;;;3.20;0.30;;;21.80;84.70;;;;;;4973644;28;20051;-85
2022/05/21 13:26:43;;;;;;;5.60;0.40;;;21.70;83.60;;;;;;4967779;28;20117;-85